createdAt,value
2022-11-01T00:01:19.617Z,11.22
2022-11-01T00:03:47.402Z,11.24
2022-11-01T00:06:17.715Z,11.30
2022-11-01T00:08:48.355Z,11.28
2022-11-01T00:11:18.239Z,11.30
2022-11-01T00:13:49.619Z,11.26
2022-11-01T00:16:18.692Z,11.15
2022-11-01T00:18:45.913Z,11.19
2022-11-01T00:21:13.723Z,11.19
2022-11-01T00:23:41.065Z,11.12
2022-11-01T00:26:08.300Z,10.90
2022-11-01T00:28:35.459Z,10.98
2022-11-01T00:31:02.219Z,10.91
2022-11-01T00:33:28.874Z,10.98
2022-11-01T00:36:00.943Z,10.62
2022-11-01T00:38:28.158Z,10.72
2022-11-01T00:40:55.244Z,10.86
2022-11-01T00:43:22.391Z,10.80
2022-11-01T00:45:50.477Z,10.82
2022-11-01T00:48:17.568Z,10.68
2022-11-01T00:50:44.203Z,10.53
2022-11-01T00:53:12.596Z,10.42
2022-11-01T00:55:41.888Z,10.53
2022-11-01T00:58:09.088Z,10.62
2022-11-01T01:00:36.532Z,10.65
2022-11-01T01:03:05.115Z,10.70
2022-11-01T01:05:33.394Z,10.70
2022-11-01T01:08:00.022Z,10.69
2022-11-01T01:10:26.697Z,10.65
2022-11-01T01:12:53.332Z,10.63
2022-11-01T01:15:19.981Z,10.66
2022-11-01T01:17:46.623Z,10.68
2022-11-01T01:20:14.310Z,10.67
2022-11-01T01:22:41.788Z,10.64
2022-11-01T01:25:09.586Z,9.88
2022-11-01T01:27:36.533Z,9.22
2022-11-01T01:30:07.869Z,9.18
2022-11-01T01:32:34.422Z,9.39
2022-11-01T01:35:01.002Z,9.82
2022-11-01T01:37:27.775Z,9.95
2022-11-01T01:39:54.355Z,10.13
2022-11-01T01:42:31.790Z,10.16
2022-11-01T01:44:58.287Z,10.19
2022-11-01T01:47:30.456Z,10.16
2022-11-01T01:50:11.993Z,10.14
2022-11-01T01:52:43.885Z,10.20
2022-11-01T01:55:12.337Z,10.20
2022-11-01T01:57:40.588Z,10.28
2022-11-01T02:00:07.989Z,10.06
2022-11-01T02:02:37.558Z,10.11
2022-11-01T02:05:29.219Z,10.16
2022-11-01T02:07:56.549Z,9.44
2022-11-01T02:10:24.085Z,9.82
2022-11-01T02:12:51.061Z,9.98
2022-11-01T03:03:08.354Z,10.19
2022-11-01T03:05:54.954Z,10.24
2022-11-01T03:08:28.936Z,10.20
2022-11-01T03:11:16.598Z,10.20
2022-11-01T03:13:58.925Z,10.24
2022-11-01T03:16:31.181Z,10.26
2022-11-01T03:19:06.548Z,10.30
2022-11-01T03:21:40.605Z,10.32
2022-11-01T03:24:20.708Z,10.38
2022-11-01T03:26:54.360Z,10.45
2022-11-01T03:29:22.821Z,10.43
2022-11-01T03:31:51.169Z,10.48
2022-11-01T03:34:19.891Z,10.43
2022-11-01T03:36:54.058Z,10.41
2022-11-01T03:39:27.078Z,10.50
2022-11-01T03:41:59.171Z,10.51
2022-11-01T03:44:28.720Z,10.52
2022-11-01T03:46:55.190Z,10.50
2022-11-01T03:49:21.692Z,10.50
2022-11-01T03:51:48.516Z,10.46
2022-11-01T03:54:15.014Z,10.42
2022-11-01T03:56:41.575Z,10.39
2022-11-01T03:59:09.841Z,10.44
2022-11-01T04:01:37.017Z,10.49
2022-11-01T04:04:03.646Z,10.43
2022-11-01T04:06:30.248Z,10.43
2022-11-01T04:08:56.773Z,10.45
2022-11-01T04:11:23.374Z,10.45
2022-11-01T04:13:49.846Z,10.50
2022-11-01T04:16:34.779Z,10.42
2022-11-01T04:19:20.494Z,10.40
2022-11-01T04:21:47.117Z,10.41
2022-11-01T04:24:20.752Z,10.37
2022-11-01T04:26:47.760Z,10.35
2022-11-01T04:29:14.198Z,10.37
2022-11-01T04:31:40.688Z,10.35
2022-11-01T04:34:07.135Z,10.37
2022-11-01T04:36:33.750Z,10.36
2022-11-01T04:39:00.198Z,10.30
2022-11-01T04:41:28.808Z,10.39
2022-11-01T04:43:59.159Z,10.37
2022-11-01T04:46:25.677Z,10.37
2022-11-01T04:48:52.100Z,10.30
2022-11-01T04:51:18.575Z,10.32
2022-11-01T04:53:45.300Z,10.28
2022-11-01T04:56:13.624Z,10.29
2022-11-01T04:58:43.222Z,10.28
2022-11-01T05:01:14.462Z,10.23
2022-11-01T05:03:41.257Z,10.27
2022-11-01T05:06:07.836Z,10.26
2022-11-01T05:08:34.330Z,10.23
2022-11-01T05:11:00.911Z,10.07
2022-11-01T05:13:27.400Z,10.11
2022-11-01T05:16:17.797Z,10.06
2022-11-01T05:18:42.713Z,10.08
2022-11-01T05:21:09.169Z,10.09
2022-11-01T05:23:35.629Z,10.11
2022-11-01T05:26:02.069Z,10.03
2022-11-01T05:28:28.504Z,10.09
2022-11-01T05:30:54.937Z,10.12
2022-11-01T05:33:21.416Z,10.04
2022-11-01T05:35:47.856Z,10.03
2022-11-01T05:38:14.366Z,9.96
2022-11-01T05:40:40.797Z,9.96
2022-11-01T05:43:07.222Z,9.93
2022-11-01T05:45:33.647Z,9.90
2022-11-01T05:48:04.413Z,9.91
2022-11-01T05:50:30.979Z,9.86
2022-11-01T05:53:07.879Z,9.89
2022-11-01T05:55:35.324Z,9.90
2022-11-01T05:58:01.950Z,9.91
2022-11-01T06:00:28.493Z,9.88
2022-11-01T06:02:58.001Z,9.88
2022-11-01T06:05:25.215Z,9.89
2022-11-01T06:07:51.671Z,9.96
2022-11-01T06:10:18.274Z,9.86
2022-11-01T06:12:44.715Z,9.89
2022-11-01T06:15:11.422Z,9.90
2022-11-01T06:17:37.862Z,9.81
2022-11-01T06:20:04.670Z,9.83
2022-11-01T06:22:31.290Z,9.81
2022-11-01T06:24:57.803Z,9.89
2022-11-01T06:27:24.231Z,9.92
2022-11-01T06:29:50.680Z,9.89
2022-11-01T06:32:17.139Z,9.89
2022-11-01T06:34:44.980Z,10.01
2022-11-01T06:37:11.755Z,9.99
2022-11-01T06:39:38.222Z,10.02
2022-11-01T06:42:04.930Z,10.05
2022-11-01T06:44:31.575Z,10.03
2022-11-01T06:46:58.059Z,10.06
2022-11-01T06:49:25.002Z,10.06
2022-11-01T06:51:51.461Z,10.14
2022-11-01T06:54:17.962Z,10.21
2022-11-01T06:56:47.621Z,10.24
2022-11-01T06:59:16.450Z,10.25
2022-11-01T07:01:44.325Z,10.27
2022-11-01T07:06:42.304Z,10.35
2022-11-01T07:09:08.762Z,10.40
2022-11-01T07:11:35.241Z,10.44
2022-11-01T07:14:01.732Z,10.45
2022-11-01T07:16:28.405Z,10.47
2022-11-01T07:18:55.329Z,10.53
2022-11-01T07:21:21.813Z,10.54
2022-11-01T07:23:48.403Z,10.52
2022-11-01T07:26:14.967Z,10.57
2022-11-01T07:28:41.457Z,10.53
2022-11-01T07:31:08.056Z,10.60
2022-11-01T07:33:34.976Z,10.65
2022-11-01T07:36:02.318Z,10.67
2022-11-01T07:38:29.000Z,10.65
2022-11-01T07:40:55.441Z,10.72
2022-11-01T07:43:22.193Z,10.75
2022-11-01T07:45:49.220Z,10.79
2022-11-01T07:48:18.463Z,10.81
2022-11-01T07:50:45.872Z,10.87
2022-11-01T07:53:13.748Z,10.87
2022-11-01T07:55:40.957Z,10.96
2022-11-01T07:58:08.375Z,10.98
2022-11-01T08:03:15.595Z,11.05
2022-11-01T08:05:44.653Z,11.13
2022-11-01T08:08:11.163Z,11.13
2022-11-01T08:10:38.641Z,11.19
2022-11-01T08:13:08.143Z,11.21
2022-11-01T08:15:35.302Z,11.31
2022-11-01T08:18:02.257Z,11.39
2022-11-01T08:20:30.088Z,11.41
2022-11-01T08:22:57.158Z,11.36
2022-11-01T08:25:24.479Z,11.48
2022-11-01T08:27:51.401Z,11.52
2022-11-01T08:30:19.304Z,11.55
2022-11-01T08:32:46.248Z,11.63
2022-11-01T08:35:13.328Z,11.67
2022-11-01T08:37:50.558Z,11.77
2022-11-01T08:40:17.670Z,11.80
2022-11-01T08:42:44.208Z,11.99
2022-11-01T08:45:11.891Z,12.10
2022-11-01T08:47:39.713Z,12.14
2022-11-01T08:50:10.960Z,12.14
2022-11-01T08:52:37.661Z,12.27
2022-11-01T08:55:04.488Z,12.20
2022-11-01T08:57:31.353Z,12.03
2022-11-01T08:59:57.822Z,12.23
2022-11-01T09:02:39.402Z,12.28
2022-11-01T09:05:07.713Z,12.36
2022-11-01T09:07:35.902Z,12.36
2022-11-01T09:10:03.158Z,12.29
2022-11-01T09:12:29.795Z,12.55
2022-11-01T09:14:56.552Z,12.56
2022-11-01T09:17:23.357Z,12.62
2022-11-01T09:19:50.124Z,12.75
2022-11-01T09:22:16.713Z,12.66
2022-11-01T09:24:43.233Z,12.76
2022-11-01T09:27:10.092Z,12.76
2022-11-01T09:29:36.940Z,12.76
2022-11-01T09:32:04.331Z,12.80
2022-11-01T09:34:31.010Z,12.86
2022-11-01T09:36:57.922Z,12.83
2022-11-01T09:39:24.488Z,12.91
2022-11-01T09:42:02.406Z,12.72
2022-11-01T09:44:34.156Z,12.91
2022-11-01T09:47:22.170Z,13.03
2022-11-01T09:49:55.296Z,13.02
2022-11-01T09:52:25.528Z,12.87
2022-11-01T09:54:52.450Z,12.97
2022-11-01T09:57:35.528Z,12.94
2022-11-01T10:00:21.864Z,12.93
2022-11-01T10:03:33.594Z,12.99
2022-11-01T10:06:16.719Z,12.96
2022-11-01T10:09:01.214Z,12.97
2022-11-01T10:11:56.855Z,13.02
2022-11-01T10:14:40.463Z,13.18
2022-11-01T10:17:15.556Z,13.21
2022-11-01T10:19:47.619Z,13.20
2022-11-01T10:22:19.945Z,13.33
2022-11-01T10:24:57.843Z,13.38
2022-11-01T10:27:37.448Z,13.49
2022-11-01T10:30:13.104Z,13.32
2022-11-01T10:32:46.824Z,13.38
2022-11-01T10:35:25.377Z,13.46
2022-11-01T10:38:11.413Z,13.46
2022-11-01T10:40:59.530Z,13.65
2022-11-01T10:43:26.607Z,13.68
2022-11-01T10:45:55.849Z,13.57
2022-11-01T10:48:43.955Z,13.62
2022-11-01T10:51:14.605Z,13.80
2022-11-01T10:53:46.740Z,13.75
2022-11-01T10:56:28.152Z,14.34
2022-11-01T10:59:34.558Z,14.65
2022-11-01T11:02:24.054Z,15.25
2022-11-01T11:04:51.115Z,15.54
2022-11-01T11:07:24.234Z,15.40
2022-11-01T11:09:53.680Z,16.19
2022-11-01T11:13:38.675Z,16.24
2022-11-01T11:16:11.736Z,16.25
2022-11-01T11:22:50.572Z,16.92
2022-11-01T11:26:04.560Z,16.87
2022-11-01T11:31:00.934Z,17.00
2022-11-01T11:32:21.049Z,16.68
2022-11-01T11:35:13.893Z,16.65
2022-11-01T11:38:02.497Z,16.84
2022-11-01T11:40:42.818Z,16.49
2022-11-01T11:43:18.933Z,16.54
2022-11-01T11:46:28.205Z,16.53
2022-11-01T11:49:07.217Z,16.38
2022-11-01T11:51:40.818Z,16.57
2022-11-01T11:54:39.260Z,16.69
2022-11-01T11:57:36.767Z,16.65
2022-11-01T12:00:08.387Z,16.65
2022-11-01T12:02:42.029Z,16.71
2022-11-01T12:05:17.624Z,16.63
2022-11-01T12:07:48.885Z,16.65
2022-11-01T12:10:49.859Z,16.84
2022-11-01T12:14:02.729Z,16.72
2022-11-01T12:16:40.436Z,16.72
2022-11-01T12:19:32.851Z,16.86
2022-11-01T12:22:14.913Z,16.70
2022-11-01T12:25:11.192Z,16.82
2022-11-01T12:27:51.977Z,16.85
2022-11-01T12:30:55.844Z,16.94
2022-11-01T12:37:04.914Z,16.87
2022-11-01T12:44:16.249Z,16.71
2022-11-01T14:41:36.140Z,16.33
2022-11-01T15:07:36.898Z,16.05
2022-11-01T15:10:14.401Z,16.04
2022-11-01T15:12:54.157Z,15.96
2022-11-01T15:15:24.150Z,15.83
2022-11-01T15:17:56.955Z,15.84
2022-11-01T15:20:26.611Z,15.85
2022-11-01T15:22:55.348Z,15.71
2022-11-01T15:25:26.625Z,15.69
2022-11-01T15:27:55.428Z,15.61
2022-11-01T15:30:26.311Z,15.61
2022-11-01T15:33:13.953Z,15.57
2022-11-01T15:35:40.786Z,15.53
2022-11-01T15:38:20.791Z,15.58
2022-11-01T15:40:48.415Z,15.57
2022-11-01T15:43:25.297Z,15.52
2022-11-01T15:45:53.729Z,15.45
2022-11-01T15:48:24.342Z,15.46
2022-11-01T15:50:55.508Z,15.46
2022-11-01T15:53:24.647Z,15.43
2022-11-01T15:56:02.112Z,15.40
2022-11-01T15:58:44.106Z,15.35
2022-11-01T16:01:17.876Z,15.28
2022-11-01T16:03:52.210Z,15.25
2022-11-01T16:06:25.393Z,15.16
2022-11-01T16:09:00.156Z,15.18
2022-11-01T16:11:30.927Z,15.05
2022-11-01T16:14:18.293Z,15.11
2022-11-01T16:16:58.070Z,15.02
2022-11-01T16:19:40.025Z,14.86
2022-11-01T16:31:22.941Z,14.61
2022-11-01T16:33:50.255Z,14.57
2022-11-01T16:36:19.560Z,14.55
2022-11-01T16:38:53.819Z,14.43
2022-11-01T16:41:26.762Z,14.40
2022-11-01T16:44:14.205Z,14.38
2022-11-01T16:46:40.702Z,14.36
2022-11-01T16:49:25.352Z,14.44
2022-11-01T16:51:53.926Z,14.42
2022-11-01T16:54:20.348Z,14.30
2022-11-01T16:56:58.670Z,14.36
2022-11-01T16:59:28.060Z,14.48
2022-11-01T17:01:58.339Z,14.52
2022-11-01T17:04:29.166Z,14.57
2022-11-01T17:06:58.281Z,14.56
2022-11-01T17:09:29.507Z,14.53
2022-11-01T17:11:56.216Z,14.47
2022-11-01T17:14:22.717Z,14.47
2022-11-01T17:16:51.120Z,14.44
2022-11-01T17:19:22.777Z,14.23
2022-11-01T17:21:51.904Z,14.03
2022-11-01T17:24:21.173Z,14.17
2022-11-01T17:26:49.311Z,14.19
2022-11-01T17:29:16.113Z,13.98
2022-11-01T17:31:42.854Z,13.89
2022-11-01T17:34:09.329Z,14.04
2022-11-01T17:36:36.426Z,13.55
2022-11-01T17:39:04.435Z,13.76
2022-11-01T17:41:30.941Z,13.74
2022-11-01T17:43:57.392Z,13.52
2022-11-01T17:46:25.929Z,13.68
2022-11-01T17:48:52.400Z,13.70
2022-11-01T17:51:18.980Z,13.57
2022-11-01T17:53:45.753Z,13.63
2022-11-01T17:56:12.209Z,13.53
2022-11-01T17:58:38.888Z,13.49
2022-11-01T18:01:07.953Z,13.65
2022-11-01T18:03:34.591Z,13.65
2022-11-01T18:06:01.111Z,13.60
2022-11-01T18:08:30.721Z,13.50
2022-11-01T18:11:12.934Z,13.42
2022-11-01T18:13:55.166Z,13.31
2022-11-01T18:16:28.010Z,13.30
2022-11-01T18:19:39.201Z,13.19
2022-11-01T18:22:14.705Z,13.15
2022-11-01T18:24:46.224Z,13.32
2022-11-01T18:27:13.488Z,13.23
2022-11-01T18:29:42.015Z,12.99
2022-11-01T18:32:38.126Z,12.94
2022-11-01T18:35:32.511Z,13.14
2022-11-01T18:38:13.418Z,13.07
2022-11-01T18:41:01.033Z,13.17
2022-11-01T18:43:31.739Z,12.92
2022-11-01T18:46:23.365Z,13.01
2022-11-01T18:48:44.906Z,12.95
2022-11-01T18:51:28.289Z,12.53
2022-11-01T18:54:30.178Z,12.79
2022-11-01T18:56:59.760Z,12.70
2022-11-01T18:59:35.521Z,12.62
2022-11-01T19:02:10.999Z,12.47
2022-11-01T19:04:40.936Z,12.32
2022-11-01T19:07:12.971Z,12.59
2022-11-01T19:09:46.776Z,12.60
2022-11-01T19:12:23.941Z,12.52
2022-11-01T19:14:58.735Z,12.35
2022-11-01T19:17:27.315Z,11.95
2022-11-01T19:19:54.676Z,12.39
2022-11-01T19:22:31.556Z,12.48
2022-11-01T19:24:59.166Z,12.45
2022-11-01T19:27:25.711Z,12.53
2022-11-01T19:29:57.749Z,12.55
2022-11-01T19:32:25.297Z,12.37
2022-11-01T19:34:53.127Z,12.19
2022-11-01T19:37:25.177Z,12.30
2022-11-01T19:39:52.488Z,12.36
2022-11-01T19:42:31.387Z,12.21
2022-11-01T19:45:04.816Z,12.24
2022-11-01T19:47:46.066Z,12.13
2022-11-01T19:50:35.880Z,12.14
2022-11-01T19:53:02.605Z,12.15
2022-11-01T19:55:47.696Z,12.06
2022-11-01T19:58:25.061Z,12.16
2022-11-01T20:01:06.519Z,11.80
2022-11-01T20:03:35.955Z,11.75
2022-11-01T20:06:02.393Z,11.91
2022-11-01T20:08:33.520Z,11.93
2022-11-01T20:11:00.196Z,11.87
2022-11-01T20:13:26.634Z,11.90
2022-11-01T20:15:53.128Z,11.85
2022-11-01T20:18:19.607Z,11.95
2022-11-01T20:20:46.017Z,11.84
2022-11-01T20:23:25.895Z,11.81
2022-11-01T20:25:53.411Z,11.56
2022-11-01T20:28:19.859Z,11.63
2022-11-01T20:30:46.400Z,11.72
2022-11-01T20:33:13.297Z,11.71
2022-11-01T20:35:39.747Z,11.72
2022-11-01T20:38:06.287Z,11.69
2022-11-01T20:40:32.773Z,11.64
2022-11-01T20:42:59.201Z,11.49
2022-11-01T20:45:25.695Z,11.30
2022-11-01T20:47:52.261Z,11.21
2022-11-01T20:50:19.098Z,11.18
2022-11-01T20:52:45.671Z,11.20
2022-11-01T20:55:13.016Z,11.28
2022-11-01T20:57:39.524Z,11.13
2022-11-01T21:00:09.913Z,11.18
2022-11-01T21:02:36.473Z,11.28
2022-11-01T21:05:16.201Z,11.22
2022-11-01T21:07:46.882Z,11.20
2022-11-01T21:10:31.597Z,11.32
2022-11-01T21:13:00.376Z,10.94
2022-11-01T21:15:31.894Z,10.93
2022-11-01T21:18:07.102Z,11.11
2022-11-01T21:20:39.613Z,10.86
2022-11-01T21:23:21.487Z,10.99
2022-11-01T21:25:59.905Z,10.96
2022-11-01T21:28:30.908Z,10.70
2022-11-01T21:31:19.277Z,10.85
2022-11-01T21:33:53.813Z,10.99
2022-11-01T21:36:20.170Z,10.90
2022-11-01T21:38:47.795Z,10.90
2022-11-01T21:41:52.550Z,10.86
2022-11-01T21:44:22.206Z,10.81
2022-11-01T21:46:51.023Z,10.75
2022-11-01T21:49:29.318Z,10.74
2022-11-01T21:51:58.884Z,10.81
2022-11-01T21:54:26.628Z,10.86
2022-11-01T21:56:53.418Z,11.02
2022-11-01T21:59:19.941Z,11.06
2022-11-01T22:01:48.241Z,11.09
2022-11-01T22:04:15.894Z,11.16
2022-11-01T22:06:43.980Z,11.05
2022-11-01T22:09:10.833Z,11.11
2022-11-01T22:11:37.706Z,11.05
2022-11-01T22:14:04.397Z,11.10
2022-11-01T22:16:31.316Z,11.15
2022-11-01T22:18:57.782Z,11.19
2022-11-01T22:21:24.594Z,11.14
2022-11-01T22:23:51.106Z,11.19
2022-11-01T22:26:17.848Z,11.12
2022-11-01T22:28:44.311Z,11.04
2022-11-01T22:31:10.877Z,11.07
2022-11-01T22:33:37.406Z,11.07
2022-11-01T22:36:05.006Z,11.01
2022-11-01T22:38:43.140Z,10.98
2022-11-01T22:41:33.249Z,10.96
2022-11-01T22:44:05.927Z,10.94
2022-11-01T22:46:58.178Z,10.86
2022-11-01T22:49:41.686Z,10.84
2022-11-01T22:52:31.979Z,10.85
2022-11-01T22:55:13.640Z,10.73
2022-11-01T22:57:46.025Z,10.64
2022-11-01T23:00:26.070Z,10.72
2022-11-01T23:02:58.512Z,10.73
2022-11-01T23:05:25.970Z,10.57
2022-11-01T23:07:57.976Z,10.60
2022-11-01T23:10:33.518Z,10.59
2022-11-01T23:13:21.724Z,10.60
2022-11-01T23:15:48.181Z,10.56
2022-11-01T23:18:27.692Z,10.51
2022-11-01T23:21:00.190Z,10.29
2022-11-01T23:23:26.927Z,10.38
2022-11-01T23:25:55.083Z,10.45
2022-11-01T23:28:23.146Z,10.43
2022-11-01T23:30:49.764Z,10.38
2022-11-01T23:33:18.836Z,10.38
2022-11-01T23:35:52.071Z,10.33
2022-11-01T23:38:31.232Z,10.34
2022-11-01T23:40:57.805Z,10.39
2022-11-01T23:43:40.030Z,10.26
2022-11-01T23:46:08.727Z,10.21
2022-11-01T23:48:41.512Z,10.31
2022-11-01T23:51:15.127Z,10.30
2022-11-01T23:53:43.003Z,10.17
2022-11-01T23:56:12.293Z,10.17
2022-11-01T23:58:38.857Z,10.27
